createdAt,value
2022-08-05T00:00:50.201Z,2.22
2022-08-05T00:03:19.421Z,2.58
2022-08-05T00:06:04.737Z,2.08
2022-08-05T00:08:37.579Z,2.53
2022-08-05T00:11:20.579Z,2.30
2022-08-05T00:13:57.003Z,2.38
2022-08-05T00:16:35.931Z,2.42
2022-08-05T00:19:14.524Z,2.10
2022-08-05T00:21:43.400Z,1.92
2022-08-05T00:24:16.103Z,2.47
2022-08-05T00:26:51.987Z,2.17
2022-08-05T00:29:22.845Z,2.30
2022-08-05T00:32:13.086Z,2.47
2022-08-05T00:35:04.160Z,2.60
2022-08-05T00:37:50.528Z,2.20
2022-08-05T00:40:27.977Z,2.22
2022-08-05T00:42:59.721Z,2.50
2022-08-05T00:45:43.168Z,2.08
2022-08-05T00:48:14.305Z,2.00
2022-08-05T00:50:46.047Z,1.77
2022-08-05T00:54:01.002Z,2.08
2022-08-05T00:56:07.811Z,2.22
2022-08-05T00:58:37.724Z,2.70
2022-08-05T01:01:08.833Z,2.05
2022-08-05T01:03:38.068Z,2.28
2022-08-05T01:06:14.259Z,2.50
2022-08-05T01:08:47.155Z,2.45
2022-08-05T01:11:24.284Z,2.00
2022-08-05T01:14:08.487Z,2.15
2022-08-05T01:16:50.035Z,1.98
2022-08-05T01:20:02.340Z,2.72
2022-08-05T01:22:53.168Z,2.10
2022-08-05T01:25:40.518Z,2.25
2022-08-05T01:28:25.785Z,2.90
2022-08-05T01:30:58.547Z,2.50
2022-08-05T01:33:35.553Z,2.60
2022-08-05T01:36:12.937Z,2.58
2022-08-05T01:38:48.338Z,2.80
2022-08-05T01:41:21.879Z,2.60
2022-08-05T01:43:53.546Z,2.60
2022-08-05T01:46:42.395Z,2.83
2022-08-05T01:49:24.075Z,2.53
2022-08-05T01:52:02.156Z,2.40
2022-08-05T01:54:52.069Z,2.10
2022-08-05T01:58:10.380Z,2.50
2022-08-05T02:00:17.873Z,2.50
2022-08-05T02:02:54.998Z,2.40
2022-08-05T02:05:36.036Z,2.50
2022-08-05T02:08:06.999Z,2.60
2022-08-05T02:10:43.916Z,2.70
2022-08-05T02:13:16.912Z,2.40
2022-08-05T02:15:51.612Z,2.63
2022-08-05T02:18:30.790Z,2.30
2022-08-05T02:21:14.633Z,2.38
2022-08-05T02:23:47.464Z,2.85
2022-08-05T02:26:23.269Z,2.70
2022-08-05T02:28:58.248Z,2.30
2022-08-05T02:31:34.893Z,2.28
2022-08-05T02:34:09.348Z,2.65
2022-08-05T02:36:43.718Z,2.97
2022-08-05T02:39:13.411Z,2.78
2022-08-05T02:42:00.412Z,2.63
2022-08-05T02:44:31.379Z,2.67
2022-08-05T02:47:02.054Z,2.78
2022-08-05T02:49:36.529Z,3.08
2022-08-05T02:52:11.317Z,3.00
2022-08-05T02:54:42.717Z,2.78
2022-08-05T02:58:11.928Z,3.03
2022-08-05T03:00:12.857Z,2.60
2022-08-05T03:02:45.342Z,2.88
2022-08-05T03:05:15.167Z,3.05
2022-08-05T03:08:06.828Z,3.22
2022-08-05T03:10:33.406Z,3.22
2022-08-05T03:15:29.309Z,3.80
2022-08-05T03:17:59.576Z,3.40
2022-08-05T03:20:28.163Z,3.10
2022-08-05T03:22:58.123Z,2.60
2022-08-05T03:25:33.343Z,2.90
2022-08-05T03:28:18.734Z,3.65
2022-08-05T03:30:49.707Z,3.08
2022-08-05T03:33:22.095Z,3.83
2022-08-05T03:35:52.874Z,3.08
2022-08-05T03:38:33.080Z,3.20
2022-08-05T03:41:08.508Z,3.35
2022-08-05T03:44:09.293Z,3.08
2022-08-05T03:46:30.036Z,3.35
2022-08-05T03:49:02.561Z,3.03
2022-08-05T03:52:48.514Z,2.95
2022-08-05T03:55:34.207Z,3.70
2022-08-05T03:57:29.257Z,3.28
2022-08-05T04:00:15.495Z,3.33
2022-08-05T04:02:57.568Z,3.83
2022-08-05T04:05:33.980Z,3.83
2022-08-05T04:08:14.594Z,4.18
2022-08-05T04:10:56.752Z,4.18
2022-08-05T04:13:27.751Z,4.03
2022-08-05T04:16:16.060Z,4.00
2022-08-05T04:18:54.856Z,4.28
2022-08-05T04:22:09.508Z,5.47
2022-08-05T04:24:19.464Z,4.85
2022-08-05T04:26:51.676Z,4.85
2022-08-05T04:29:20.604Z,5.32
2022-08-05T04:31:49.600Z,4.68
2022-08-05T04:34:32.820Z,5.03
2022-08-05T04:37:05.800Z,5.00
2022-08-05T04:39:35.365Z,4.40
2022-08-05T04:42:04.988Z,4.18
2022-08-05T04:44:33.712Z,4.10
2022-08-05T04:47:09.467Z,4.03
2022-08-05T04:50:02.599Z,4.15
2022-08-05T04:52:32.528Z,4.55
2022-08-05T04:55:05.332Z,3.20
2022-08-05T04:57:47.563Z,3.28
2022-08-05T05:00:17.614Z,3.85
2022-08-05T05:02:46.914Z,3.90
2022-08-05T05:05:16.669Z,3.28
2022-08-05T05:08:02.601Z,3.88
2022-08-05T05:10:33.327Z,3.50
2022-08-05T05:13:04.280Z,3.13
2022-08-05T05:15:57.320Z,4.25
2022-08-05T05:18:31.031Z,3.85
2022-08-05T05:21:03.143Z,3.78
2022-08-05T05:23:39.374Z,3.53
2022-08-05T05:26:28.513Z,3.28
2022-08-05T05:29:02.809Z,3.70
2022-08-05T05:31:43.354Z,3.25
2022-08-05T05:34:15.824Z,3.50
2022-08-05T05:36:47.182Z,3.35
2022-08-05T05:39:21.379Z,2.78
2022-08-05T05:41:54.455Z,2.92
2022-08-05T05:44:36.871Z,3.78
2022-08-05T05:47:23.581Z,3.15
2022-08-05T05:50:01.640Z,3.33
2022-08-05T05:52:34.691Z,2.85
2022-08-05T05:55:13.160Z,3.22
2022-08-05T05:57:52.962Z,2.72
2022-08-05T06:00:31.372Z,2.95
2022-08-05T06:03:03.362Z,2.95
2022-08-05T06:05:54.161Z,2.55
2022-08-05T06:08:32.487Z,2.53
2022-08-05T06:11:03.132Z,2.10
2022-08-05T06:13:40.716Z,2.35
2022-08-05T06:16:28.553Z,2.30
2022-08-05T06:19:01.138Z,2.55
2022-08-05T06:21:37.105Z,2.55
2022-08-05T06:24:11.273Z,2.70
2022-08-05T06:26:51.127Z,2.03
2022-08-05T06:29:25.559Z,2.10
2022-08-05T06:32:21.117Z,2.10
2022-08-05T06:34:56.605Z,2.47
2022-08-05T06:37:56.611Z,1.60
2022-08-05T06:40:18.512Z,1.77
2022-08-05T06:42:52.930Z,2.05
2022-08-05T06:46:03.080Z,1.55
2022-08-05T06:48:53.053Z,2.00
2022-08-05T06:51:00.059Z,1.90
2022-08-05T06:53:29.719Z,2.40
2022-08-05T06:55:59.705Z,2.05
2022-08-05T06:58:36.515Z,2.35
2022-08-05T07:01:07.146Z,1.77
2022-08-05T07:03:36.457Z,1.98
2022-08-05T07:06:14.244Z,1.85
2022-08-05T07:08:47.864Z,2.03
2022-08-05T07:11:22.568Z,1.75
2022-08-05T07:14:15.845Z,2.00
2022-08-05T07:18:08.589Z,2.10
2022-08-05T07:22:30.440Z,1.50
2022-08-05T07:25:23.980Z,1.60
2022-08-05T07:27:57.970Z,1.50
2022-08-05T07:30:34.451Z,1.58
2022-08-05T07:33:05.520Z,1.50
2022-08-05T07:36:04.849Z,1.48
2022-08-05T07:38:34.378Z,1.63
2022-08-05T07:41:35.007Z,2.33
2022-08-05T07:43:57.015Z,1.48
2022-08-05T07:46:29.187Z,1.33
2022-08-05T07:49:05.571Z,1.63
2022-08-05T07:51:40.740Z,1.30
2022-08-05T07:54:18.759Z,1.50
2022-08-05T07:57:01.894Z,1.42
2022-08-05T07:59:40.575Z,1.52
2022-08-05T08:02:16.134Z,1.50
2022-08-05T08:04:48.180Z,1.60
2022-08-05T08:07:23.048Z,1.60
2022-08-05T08:09:55.090Z,1.38
2022-08-05T08:12:36.959Z,1.30
2022-08-05T08:15:15.159Z,1.50
2022-08-05T08:17:52.895Z,1.25
2022-08-05T08:21:00.287Z,1.02
2022-08-05T08:24:02.263Z,1.45
2022-08-05T08:26:02.787Z,1.13
2022-08-05T08:28:36.335Z,1.70
2022-08-05T08:31:06.917Z,1.27
2022-08-05T08:33:38.189Z,1.50
2022-08-05T08:38:57.796Z,1.23
2022-08-05T08:41:50.679Z,1.40
2022-08-05T08:45:18.684Z,1.15
2022-08-05T08:47:47.626Z,2.00
2022-08-05T08:50:14.610Z,1.58
2022-08-05T08:52:55.875Z,1.27
2022-08-05T08:56:02.205Z,1.55
2022-08-05T08:58:16.395Z,1.20
2022-08-05T09:00:46.903Z,1.30
2022-08-05T09:03:19.165Z,1.45
2022-08-05T09:06:08.434Z,1.42
2022-08-05T09:08:40.506Z,1.38
2022-08-05T09:11:12.175Z,1.55
2022-08-05T09:14:10.026Z,1.40
2022-08-05T09:16:33.046Z,1.40
2022-08-05T09:19:01.794Z,1.20
2022-08-05T09:22:22.172Z,1.55
2022-08-05T09:24:25.748Z,1.55
2022-08-05T09:26:58.795Z,1.40
2022-08-05T09:29:47.618Z,1.33
2022-08-05T09:32:46.089Z,1.70
2022-08-05T09:35:26.641Z,1.00
2022-08-05T09:38:16.164Z,1.25
2022-08-05T09:40:52.302Z,1.60
2022-08-05T09:43:40.514Z,1.33
2022-08-05T09:46:27.508Z,1.17
2022-08-05T09:49:06.719Z,1.60
2022-08-05T09:51:39.892Z,1.38
2022-08-05T09:54:11.617Z,1.55
2022-08-05T09:56:52.274Z,1.40
2022-08-05T09:59:27.718Z,1.52
2022-08-05T10:01:58.184Z,1.58
2022-08-05T10:04:38.642Z,1.60
2022-08-05T10:07:20.134Z,1.33
2022-08-05T10:10:15.308Z,1.67
2022-08-05T10:12:49.200Z,1.48
2022-08-05T10:15:22.078Z,1.23
2022-08-05T10:18:10.435Z,1.67
2022-08-05T10:20:41.940Z,1.50
2022-08-05T10:23:34.091Z,1.65
2022-08-05T10:26:51.563Z,1.60
2022-08-05T10:28:56.534Z,1.40
2022-08-05T10:33:01.988Z,1.55
2022-08-05T10:34:14.454Z,1.58
2022-08-05T10:36:46.689Z,2.00
2022-08-05T10:39:24.455Z,1.40
2022-08-05T10:42:14.654Z,1.83
2022-08-05T10:44:47.729Z,1.33
2022-08-05T10:47:26.445Z,1.75
2022-08-05T10:50:20.669Z,1.60
2022-08-05T10:52:58.475Z,1.95
2022-08-05T10:55:28.671Z,1.95
2022-08-05T10:58:15.581Z,1.63
2022-08-05T11:00:55.455Z,1.60
2022-08-05T11:03:33.746Z,1.80
2022-08-05T11:06:08.555Z,1.48
2022-08-05T11:09:16.303Z,1.90
2022-08-05T11:11:53.369Z,1.55
2022-08-05T11:14:57.851Z,1.83
2022-08-05T11:17:59.654Z,1.85
2022-08-05T11:20:39.228Z,1.35
2022-08-05T11:24:03.250Z,1.80
2022-08-05T11:26:28.031Z,1.35
2022-08-05T11:29:12.291Z,1.48
2022-08-05T11:31:57.405Z,1.90
2022-08-05T11:34:51.080Z,1.80
2022-08-05T11:38:30.793Z,1.60
2022-08-05T11:41:34.527Z,2.22
2022-08-05T11:44:01.021Z,1.67
2022-08-05T11:47:09.937Z,1.70
2022-08-05T11:49:28.656Z,1.50
2022-08-05T11:51:57.894Z,1.83
2022-08-05T11:54:33.896Z,2.22
2022-08-05T11:57:08.142Z,2.00
2022-08-05T11:59:53.502Z,1.95
2022-08-05T12:02:31.721Z,1.77
2022-08-05T12:05:07.971Z,1.98
2022-08-05T12:08:08.458Z,1.73
2022-08-05T12:10:45.008Z,1.50
2022-08-05T12:13:18.703Z,1.83
2022-08-05T12:16:15.748Z,1.83
2022-08-05T12:18:53.144Z,1.98
2022-08-05T12:21:26.875Z,2.25
2022-08-05T12:24:05.428Z,1.70
2022-08-05T12:26:37.005Z,1.83
2022-08-05T12:29:09.601Z,2.15
2022-08-05T12:31:47.609Z,2.22
2022-08-05T12:34:26.829Z,1.80
2022-08-05T12:36:59.355Z,1.75
2022-08-05T12:39:34.510Z,1.60
2022-08-05T12:42:15.012Z,2.20
2022-08-05T12:44:47.378Z,1.73
2022-08-05T12:47:28.692Z,1.70
2022-08-05T12:50:03.508Z,1.63
2022-08-05T12:52:39.760Z,1.88
2022-08-05T12:55:23.841Z,2.05
2022-08-05T12:58:48.496Z,1.65
2022-08-05T13:02:02.921Z,1.88
2022-08-05T13:03:42.233Z,1.88
2022-08-05T13:06:17.198Z,1.92
2022-08-05T13:08:51.524Z,1.88
2022-08-05T13:12:01.517Z,1.63
2022-08-05T13:14:24.508Z,1.88
2022-08-05T13:16:56.833Z,1.95
2022-08-05T13:19:40.431Z,1.92
2022-08-05T13:22:28.351Z,2.00
2022-08-05T13:25:05.905Z,2.10
2022-08-05T13:27:40.352Z,1.65
2022-08-05T13:30:34.893Z,1.73
2022-08-05T13:33:01.089Z,2.05
2022-08-05T13:35:43.143Z,2.47
2022-08-05T13:38:28.214Z,1.85
2022-08-05T13:41:00.606Z,1.90
2022-08-05T13:43:44.093Z,2.25
2022-08-05T13:46:30.778Z,2.13
2022-08-05T13:49:10.093Z,2.05
2022-08-05T13:51:46.538Z,1.85
2022-08-05T13:54:21.233Z,2.13
2022-08-05T13:56:54.524Z,2.10
2022-08-05T13:59:27.427Z,2.20
2022-08-05T14:02:00.909Z,2.03
2022-08-05T14:04:51.172Z,1.95
2022-08-05T14:07:55.436Z,2.83
2022-08-05T14:10:13.014Z,2.13
2022-08-05T14:12:42.789Z,1.98
2022-08-05T14:16:05.346Z,2.05
2022-08-05T14:18:05.179Z,2.10
2022-08-05T14:20:34.075Z,2.38
2022-08-05T14:23:03.080Z,1.90
2022-08-05T14:25:32.066Z,1.88
2022-08-05T14:28:00.880Z,1.90
2022-08-05T14:30:30.966Z,1.88
2022-08-05T14:32:59.854Z,2.30
2022-08-05T14:35:36.873Z,1.67
2022-08-05T14:38:06.379Z,1.77
2022-08-05T14:40:55.049Z,2.42
2022-08-05T14:43:57.331Z,2.25
2022-08-05T14:46:13.983Z,2.10
2022-08-05T14:48:42.759Z,2.63
2022-08-05T14:51:11.310Z,1.92
2022-08-05T14:54:26.179Z,2.55
2022-08-05T14:56:35.670Z,2.15
2022-08-05T14:59:06.898Z,2.15
2022-08-05T15:01:49.007Z,1.83
2022-08-05T15:04:20.487Z,2.05
2022-08-05T15:06:51.483Z,2.60
2022-08-05T15:09:51.305Z,1.95
2022-08-05T15:12:11.513Z,1.75
2022-08-05T15:14:50.057Z,1.90
2022-08-05T15:17:46.685Z,2.08
2022-08-05T15:20:18.505Z,2.33
2022-08-05T15:22:54.060Z,2.20
2022-08-05T15:25:51.461Z,1.80
2022-08-05T15:28:14.383Z,1.98
2022-08-05T15:30:45.784Z,2.25
2022-08-05T15:34:05.113Z,2.10
2022-08-05T15:36:17.004Z,2.30
2022-08-05T15:41:02.516Z,2.25
2022-08-05T15:41:58.083Z,2.10
2022-08-05T15:44:29.986Z,2.05
2022-08-05T15:47:00.217Z,2.30
2022-08-05T15:49:42.223Z,2.15
2022-08-05T15:52:51.838Z,1.85
2022-08-05T15:55:10.449Z,2.20
2022-08-05T15:57:46.039Z,1.80
2022-08-05T16:00:26.057Z,2.10
2022-08-05T16:03:01.598Z,1.83
2022-08-05T16:05:35.029Z,2.15
2022-08-05T16:08:08.027Z,1.85
2022-08-05T16:10:36.764Z,1.85
2022-08-05T16:13:05.542Z,2.25
2022-08-05T16:15:34.277Z,2.08
2022-08-05T16:18:04.295Z,2.10
2022-08-05T16:20:39.177Z,1.80
2022-08-05T16:23:08.587Z,2.10
2022-08-05T16:25:38.031Z,2.15
2022-08-05T16:28:10.262Z,1.75
2022-08-05T16:30:39.246Z,1.90
2022-08-05T16:33:10.448Z,2.60
2022-08-05T16:35:42.163Z,2.20
2022-08-05T16:38:18.679Z,2.35
2022-08-05T16:40:55.391Z,2.40
2022-08-05T16:43:31.481Z,2.08
2022-08-05T16:46:04.377Z,2.60
2022-08-05T16:48:39.027Z,3.03
2022-08-05T16:51:10.749Z,2.10
2022-08-05T16:54:03.479Z,2.40
2022-08-05T16:56:31.348Z,2.58
2022-08-05T16:59:00.992Z,2.08
2022-08-05T17:01:53.650Z,2.15
2022-08-05T17:04:27.285Z,2.58
2022-08-05T17:07:01.262Z,2.20
2022-08-05T17:09:57.721Z,2.33
2022-08-05T17:12:22.465Z,2.58
2022-08-05T17:14:51.769Z,2.13
2022-08-05T17:17:20.420Z,2.47
2022-08-05T17:19:53.858Z,2.42
2022-08-05T17:22:26.122Z,1.90
2022-08-05T17:24:58.136Z,2.33
2022-08-05T17:27:33.922Z,2.13
2022-08-05T17:30:12.209Z,2.20
2022-08-05T17:32:48.031Z,2.75
2022-08-05T17:35:20.856Z,2.25
2022-08-05T17:37:51.386Z,2.20
2022-08-05T17:40:22.661Z,2.30
2022-08-05T17:42:53.528Z,2.60
2022-08-05T17:45:29.632Z,2.28
2022-08-05T17:48:08.918Z,2.72
2022-08-05T17:50:37.386Z,2.15
2022-08-05T17:53:08.730Z,2.03
2022-08-05T17:55:39.918Z,2.53
2022-08-05T17:58:14.575Z,2.72
2022-08-05T18:00:47.855Z,2.17
2022-08-05T18:06:11.455Z,2.83
2022-08-05T18:08:44.928Z,3.28
2022-08-05T18:11:24.277Z,3.05
2022-08-05T18:13:59.766Z,4.38
2022-08-05T18:16:29.232Z,3.88
2022-08-05T18:18:57.791Z,3.95
2022-08-05T18:22:08.892Z,3.75
2022-08-05T18:24:17.296Z,4.18
2022-08-05T18:26:46.436Z,4.57
2022-08-05T18:29:17.046Z,4.60
2022-08-05T18:31:45.865Z,4.72
2022-08-05T18:34:21.771Z,3.95
2022-08-05T18:36:50.546Z,5.00
2022-08-05T18:40:29.670Z,4.63
2022-08-05T18:42:12.647Z,4.22
2022-08-05T18:44:48.990Z,4.55
2022-08-05T18:47:22.633Z,4.60
2022-08-05T18:50:12.889Z,4.22
2022-08-05T18:52:50.898Z,4.15
2022-08-05T18:55:22.347Z,4.07
2022-08-05T18:57:52.992Z,4.10
2022-08-05T19:00:28.817Z,4.20
2022-08-05T19:03:04.157Z,4.00
2022-08-05T19:06:12.425Z,4.78
2022-08-05T19:08:30.157Z,3.97
2022-08-05T19:11:04.621Z,3.75
2022-08-05T19:13:36.850Z,4.38
2022-08-05T19:16:24.890Z,4.13
2022-08-05T19:18:57.182Z,4.15
2022-08-05T19:21:34.190Z,4.15
2022-08-05T19:24:08.965Z,5.45
2022-08-05T19:26:43.917Z,4.85
2022-08-05T19:29:26.769Z,4.03
2022-08-05T19:32:08.621Z,4.25
2022-08-05T19:34:40.425Z,3.85
2022-08-05T19:37:10.309Z,4.88
2022-08-05T19:39:45.628Z,5.10
2022-08-05T19:42:35.299Z,4.38
2022-08-05T19:45:07.222Z,4.13
2022-08-05T19:47:37.492Z,4.30
2022-08-05T19:50:10.530Z,4.65
2022-08-05T19:52:41.204Z,4.53
2022-08-05T19:56:14.451Z,4.40
2022-08-05T19:58:14.416Z,4.40
2022-08-05T20:00:49.917Z,4.53
2022-08-05T20:03:18.805Z,4.15
2022-08-05T20:05:50.123Z,4.50
2022-08-05T20:08:24.537Z,4.32
2022-08-05T20:10:53.637Z,4.47
2022-08-05T20:13:54.963Z,4.60
2022-08-05T20:16:12.989Z,3.95
2022-08-05T20:18:55.414Z,4.82
2022-08-05T20:21:25.702Z,4.00
2022-08-05T20:23:54.663Z,4.95
2022-08-05T20:26:25.863Z,4.50
2022-08-05T20:28:58.076Z,4.38
2022-08-05T20:31:43.010Z,4.28
2022-08-05T20:34:18.977Z,3.17
2022-08-05T20:36:48.862Z,4.40
2022-08-05T20:39:18.706Z,4.30
2022-08-05T20:41:48.244Z,3.78
2022-08-05T20:44:29.942Z,4.20
2022-08-05T20:47:01.326Z,5.05
2022-08-05T20:49:30.268Z,3.70
2022-08-05T20:52:07.228Z,4.32
2022-08-05T20:54:43.398Z,4.10
2022-08-05T20:57:43.963Z,4.22
2022-08-05T21:00:34.852Z,3.92
2022-08-05T21:03:08.195Z,3.42
2022-08-05T21:05:53.585Z,3.97
2022-08-05T21:08:26.610Z,3.63
2022-08-05T21:11:09.934Z,3.97
2022-08-05T21:13:47.882Z,4.35
2022-08-05T21:16:29.949Z,3.95
2022-08-05T21:18:59.822Z,3.78
2022-08-05T21:21:43.849Z,3.72
2022-08-05T21:24:19.589Z,4.47
2022-08-05T21:26:58.402Z,3.72
2022-08-05T21:29:32.015Z,3.58
2022-08-05T21:32:03.560Z,4.00
2022-08-05T21:34:33.105Z,4.10
2022-08-05T21:37:05.138Z,4.13
2022-08-05T21:39:34.475Z,4.55
2022-08-05T21:42:03.662Z,3.75
2022-08-05T21:44:32.802Z,4.15
2022-08-05T21:47:02.901Z,5.07
2022-08-05T21:49:56.892Z,4.22
2022-08-05T21:52:28.464Z,4.32
2022-08-05T21:55:06.450Z,4.00
2022-08-05T21:57:36.413Z,4.13
2022-08-05T22:00:13.043Z,3.97
2022-08-05T22:02:43.944Z,4.20
2022-08-05T22:05:14.497Z,4.20
2022-08-05T22:08:02.002Z,4.47
2022-08-05T22:10:31.283Z,4.35
2022-08-05T22:13:58.821Z,4.70
2022-08-05T22:16:01.060Z,4.43
2022-08-05T22:18:34.955Z,4.32
2022-08-05T22:21:11.209Z,4.38
2022-08-05T22:24:08.974Z,3.88
2022-08-05T22:26:59.254Z,3.85
2022-08-05T22:29:30.846Z,3.83
2022-08-05T22:32:02.867Z,4.75
2022-08-05T22:34:34.205Z,3.67
2022-08-05T22:37:05.021Z,3.97
2022-08-05T22:39:34.665Z,3.60
2022-08-05T22:42:10.916Z,3.38
2022-08-05T22:44:48.401Z,4.15
2022-08-05T22:47:29.752Z,3.03
2022-08-05T22:50:19.732Z,3.13
2022-08-05T22:52:52.457Z,3.92
2022-08-05T22:55:22.221Z,3.08
2022-08-05T22:57:51.461Z,3.22
2022-08-05T23:00:22.514Z,2.85
2022-08-05T23:02:53.629Z,2.65
2022-08-05T23:05:24.657Z,3.33
2022-08-05T23:07:53.865Z,2.97
2022-08-05T23:10:24.422Z,3.47
2022-08-05T23:12:55.743Z,2.85
2022-08-05T23:15:26.956Z,3.20
2022-08-05T23:18:00.944Z,3.03
2022-08-05T23:20:37.525Z,2.83
2022-08-05T23:23:08.713Z,2.53
2022-08-05T23:25:54.985Z,2.40
2022-08-05T23:28:28.753Z,2.80
2022-08-05T23:31:02.224Z,2.70
2022-08-05T23:34:03.304Z,3.03
2022-08-05T23:36:38.608Z,3.03
2022-08-05T23:39:09.259Z,2.85
2022-08-05T23:41:40.940Z,2.55
2022-08-05T23:44:09.791Z,3.17
2022-08-05T23:46:39.346Z,3.10
2022-08-05T23:49:16.878Z,2.97
2022-08-05T23:52:09.622Z,2.92
2022-08-05T23:54:38.836Z,2.95
2022-08-05T23:57:08.541Z,3.08
